createdAt,value
2023-02-11T00:01:53.695Z,984.66
2023-02-11T00:07:24.999Z,984.72
2023-02-11T00:12:56.926Z,984.87
2023-02-11T00:18:28.363Z,984.83
2023-02-11T00:24:00.468Z,984.76
2023-02-11T00:29:31.797Z,984.48
2023-02-11T00:35:04.028Z,984.38
2023-02-11T00:40:35.575Z,984.54
2023-02-11T00:46:07.433Z,984.51
2023-02-11T00:51:38.948Z,984.78
2023-02-11T00:57:17.852Z,984.8
2023-02-11T01:02:48.592Z,984.74
2023-02-11T01:08:20.796Z,984.76
2023-02-11T01:13:52.759Z,984.47
2023-02-11T01:19:24.873Z,983.96
2023-02-11T01:24:56.342Z,983.99
2023-02-11T01:30:27.751Z,983.95
2023-02-11T01:36:00.251Z,983.9
2023-02-11T01:41:31.552Z,983.38
2023-02-11T01:47:02.975Z,983.18
2023-02-11T01:52:34.959Z,983.17
2023-02-11T01:58:11.498Z,983.2
2023-02-11T02:03:42.725Z,983.26
2023-02-11T02:09:14.520Z,983.39
2023-02-11T02:14:46.211Z,983.04
2023-02-11T02:20:17.661Z,983.17
2023-02-11T02:25:50.889Z,983.13
2023-02-11T02:31:21.861Z,983.22
2023-02-11T02:36:53.300Z,983.41
2023-02-11T02:42:25.092Z,983.23
2023-02-11T02:47:56.618Z,983.09
2023-02-11T02:53:28.941Z,982.99
2023-02-11T02:59:06.544Z,982.89
2023-02-11T03:04:38.007Z,982.86
2023-02-11T03:10:10.948Z,982.67
2023-02-11T03:15:41.753Z,982.55
2023-02-11T03:21:13.446Z,982.27
2023-02-11T03:26:44.953Z,982.53
2023-02-11T03:32:17.277Z,982.63
2023-02-11T03:37:48.250Z,982.35
2023-02-11T03:43:19.973Z,982.7
2023-02-11T03:48:52.248Z,982.75
2023-02-11T03:54:23.704Z,982.65
2023-02-11T03:59:59.747Z,983.19
2023-02-11T04:05:31.745Z,983.87
2023-02-11T04:11:03.056Z,984.51
2023-02-11T04:16:35.094Z,984.14
2023-02-11T04:22:06.329Z,984.38
2023-02-11T04:27:38.246Z,984.35
2023-02-11T04:33:10.050Z,984.54
2023-02-11T04:38:41.628Z,984.92
2023-02-11T04:44:13.472Z,984.91
2023-02-11T04:49:45.336Z,984.87
2023-02-11T04:55:17.223Z,984.61
2023-02-11T05:00:53.460Z,985.21
2023-02-11T05:06:24.924Z,985.72
2023-02-11T05:11:57.587Z,985.53
2023-02-11T05:17:28.320Z,985.1
2023-02-11T05:22:59.884Z,984.5
2023-02-11T05:28:31.817Z,984.77
2023-02-11T05:34:03.621Z,984.72
2023-02-11T05:39:36.097Z,985.24
2023-02-11T05:45:07.519Z,985.77
2023-02-11T05:50:39.298Z,986.08
2023-02-11T05:56:10.584Z,986.72
2023-02-11T06:01:48.401Z,986.89
2023-02-11T06:07:20.035Z,987.13
2023-02-11T06:12:52.045Z,987.05
2023-02-11T06:18:23.530Z,986.68
2023-02-11T06:23:56.326Z,986.67
2023-02-11T06:29:27.330Z,987.0
2023-02-11T06:34:58.926Z,986.75
2023-02-11T06:40:31.329Z,986.96
2023-02-11T06:46:02.096Z,986.99
2023-02-11T06:51:33.920Z,987.07
2023-02-11T06:57:05.715Z,987.23
2023-02-11T07:02:42.568Z,986.71
2023-02-11T07:08:13.826Z,986.75
2023-02-11T07:13:45.005Z,986.69
2023-02-11T07:19:17.215Z,986.51
2023-02-11T07:24:48.927Z,987.12
2023-02-11T07:30:20.716Z,987.56
2023-02-11T07:35:53.421Z,987.65
2023-02-11T07:41:23.870Z,987.95
2023-02-11T07:46:55.784Z,987.46
2023-02-11T07:52:27.874Z,987.7
2023-02-11T07:57:59.030Z,987.89
2023-02-11T08:03:35.293Z,987.25
2023-02-11T08:09:07.087Z,987.01
2023-02-11T08:14:39.197Z,988.05
2023-02-11T08:20:10.702Z,987.95
2023-02-11T08:25:42.071Z,988.65
2023-02-11T08:31:14.501Z,989.62
2023-02-11T08:36:46.631Z,989.99
2023-02-11T08:42:17.727Z,990.09
2023-02-11T08:47:48.945Z,989.79
2023-02-11T08:53:20.627Z,989.74
2023-02-11T08:58:52.349Z,990.59
2023-02-11T09:04:28.771Z,991.4
2023-02-11T09:10:00.124Z,991.71
2023-02-11T09:15:32.720Z,993.58
2023-02-11T09:21:03.618Z,994.34
2023-02-11T09:26:35.651Z,993.51
2023-02-11T09:32:11.039Z,992.93
2023-02-11T09:37:38.950Z,993.64
2023-02-11T09:43:10.563Z,994.16
2023-02-11T09:48:42.210Z,994.21
2023-02-11T09:54:14.659Z,995.01
2023-02-11T09:59:45.973Z,993.87
2023-02-11T10:05:21.943Z,994.34
2023-02-11T10:10:54.543Z,993.4
2023-02-11T10:16:26.247Z,993.97
2023-02-11T10:21:58.355Z,995.0
2023-02-11T10:27:28.841Z,995.01
2023-02-11T10:33:00.645Z,995.48
2023-02-11T10:38:32.465Z,994.67
2023-02-11T10:44:04.082Z,994.81
2023-02-11T10:49:36.566Z,995.59
2023-02-11T10:55:07.411Z,994.98
2023-02-11T11:00:39.157Z,995.81
2023-02-11T11:06:17.839Z,995.68
2023-02-11T11:11:47.555Z,995.56
2023-02-11T11:17:19.291Z,996.6
2023-02-11T11:22:51.020Z,996.24
2023-02-11T11:28:23.048Z,994.22
2023-02-11T11:33:54.383Z,997.36
2023-02-11T11:39:26.220Z,996.86
2023-02-11T11:44:57.864Z,997.27
2023-02-11T11:50:29.598Z,996.99
2023-02-11T11:56:01.275Z,996.29
2023-02-11T12:01:34.227Z,996.61
2023-02-11T12:07:10.988Z,995.92
2023-02-11T12:12:46.768Z,995.62
2023-02-11T12:18:14.512Z,996.3
2023-02-11T12:23:46.549Z,996.51
2023-02-11T12:29:18.063Z,995.53
2023-02-11T12:34:50.742Z,996.65
2023-02-11T12:40:21.513Z,994.39
2023-02-11T12:45:53.439Z,995.27
2023-02-11T12:51:25.676Z,994.59
2023-02-11T12:56:56.726Z,994.1
2023-02-11T13:02:28.556Z,994.55
2023-02-11T13:08:04.688Z,995.03
2023-02-11T13:13:36.697Z,993.85
2023-02-11T13:19:08.654Z,994.34
2023-02-11T13:24:39.698Z,994.27
2023-02-11T13:30:11.709Z,995.4
2023-02-11T13:35:43.901Z,994.51
2023-02-11T13:41:15.164Z,994.3
2023-02-11T13:46:46.951Z,994.5
2023-02-11T13:52:18.475Z,994.5
2023-02-11T13:57:49.922Z,994.27
2023-02-11T14:03:21.682Z,993.7
2023-02-11T14:08:58.062Z,993.63
2023-02-11T14:14:29.609Z,993.72
2023-02-11T14:20:01.720Z,993.93
2023-02-11T14:25:32.932Z,993.81
2023-02-11T14:31:05.210Z,993.61
2023-02-11T14:36:36.586Z,994.19
2023-02-11T14:42:09.086Z,993.85
2023-02-11T14:47:40.041Z,992.78
2023-02-11T14:53:11.966Z,993.26
2023-02-11T14:58:44.785Z,993.43
2023-02-11T15:04:15.514Z,993.44
2023-02-11T15:09:55.156Z,993.48
2023-02-11T15:15:25.296Z,992.96
2023-02-11T15:20:56.766Z,993.2
2023-02-11T15:26:28.660Z,992.91
2023-02-11T15:32:00.674Z,992.79
2023-02-11T15:37:31.887Z,993.13
2023-02-11T15:43:03.727Z,992.64
2023-02-11T15:48:35.656Z,993.2
2023-02-11T15:54:07.515Z,992.12
2023-02-11T15:59:38.915Z,992.61
2023-02-11T16:05:10.586Z,992.7
2023-02-11T16:10:48.734Z,993.43
2023-02-11T16:16:20.729Z,993.61
2023-02-11T16:21:52.202Z,993.75
2023-02-11T16:27:23.730Z,993.95
2023-02-11T16:32:55.493Z,993.86
2023-02-11T16:38:27.630Z,993.72
2023-02-11T16:43:59.110Z,993.28
2023-02-11T16:49:30.892Z,993.25
2023-02-11T16:55:02.507Z,992.37
2023-02-11T17:00:34.431Z,992.38
2023-02-11T17:06:05.838Z,993.08
2023-02-11T17:11:42.162Z,992.88
2023-02-11T17:17:14.077Z,993.1
2023-02-11T17:22:45.480Z,992.87
2023-02-11T17:28:17.733Z,992.83
2023-02-11T17:33:49.179Z,992.52
2023-02-11T17:39:20.686Z,992.86
2023-02-11T17:44:52.657Z,992.82
2023-02-11T17:50:24.172Z,993.02
2023-02-11T17:55:56.021Z,992.83
2023-02-11T18:01:28.016Z,992.89
2023-02-11T18:06:59.342Z,992.87
2023-02-11T18:12:36.077Z,993.01
2023-02-11T18:18:07.201Z,992.77
2023-02-11T18:23:39.088Z,993.01
2023-02-11T18:29:11.536Z,993.02
2023-02-11T18:34:42.435Z,992.98
2023-02-11T18:40:13.867Z,993.03
2023-02-11T18:45:46.003Z,993.06
2023-02-11T18:51:17.491Z,992.79
2023-02-11T18:56:49.272Z,992.84
2023-02-11T19:02:20.901Z,992.77
2023-02-11T19:07:52.915Z,992.74
2023-02-11T19:13:30.590Z,992.8
2023-02-11T19:19:02.742Z,992.83
2023-02-11T19:24:34.330Z,992.71
2023-02-11T19:30:05.721Z,992.75
2023-02-11T19:35:37.873Z,992.87
2023-02-11T19:41:09.533Z,992.86
2023-02-11T19:46:41.762Z,992.93
2023-02-11T19:52:13.226Z,992.81
2023-02-11T19:57:44.874Z,992.68
2023-02-11T20:03:16.524Z,992.76
2023-02-11T20:08:47.990Z,992.7
2023-02-11T20:14:28.810Z,992.59
2023-02-11T20:19:58.042Z,992.67
2023-02-11T20:25:29.884Z,992.62
2023-02-11T20:31:02.131Z,992.56
2023-02-11T20:36:33.284Z,992.62
2023-02-11T20:42:04.720Z,992.72
2023-02-11T20:47:36.693Z,992.67
2023-02-11T20:53:08.127Z,992.34
2023-02-11T20:58:40.003Z,992.85
2023-02-11T21:04:11.817Z,992.94
2023-02-11T21:09:43.532Z,992.99
2023-02-11T21:15:19.341Z,992.75
2023-02-11T21:20:51.376Z,992.89
2023-02-11T21:26:22.861Z,992.8
2023-02-11T21:31:54.995Z,992.89
2023-02-11T21:37:26.108Z,993.03
2023-02-11T21:42:57.861Z,993.03
2023-02-11T21:48:29.698Z,993.12
2023-02-11T21:54:01.557Z,993.08
2023-02-11T21:59:33.257Z,993.01
2023-02-11T22:05:05.099Z,992.95
2023-02-11T22:10:36.711Z,992.94
2023-02-11T22:16:14.732Z,993.04
2023-02-11T22:21:46.560Z,993.11
2023-02-11T22:27:21.382Z,993.07
2023-02-11T22:32:49.923Z,993.17
2023-02-11T22:38:21.708Z,993.13
2023-02-11T22:43:53.404Z,993.13
2023-02-11T22:49:26.317Z,993.07
2023-02-11T22:54:57.008Z,993.05
2023-02-11T23:00:28.849Z,993.16
2023-02-11T23:06:00.405Z,993.14
2023-02-11T23:11:32.049Z,993.09
2023-02-11T23:17:08.245Z,993.01
2023-02-11T23:22:39.914Z,993.01
2023-02-11T23:28:11.673Z,992.94
2023-02-11T23:33:43.379Z,992.89
2023-02-11T23:39:14.929Z,992.93
2023-02-11T23:44:46.737Z,992.99
2023-02-11T23:50:18.338Z,992.9
2023-02-11T23:55:50.323Z,992.9
